Time;durP1;ratioP1;P1;durP2;ratioP2;P2;SDS_P1;SDS_P2;PMS_P1;PMS_P2;Temp;Humidity;BMP_temperature;BMP_pressure;BME280_temperature;BME280_humidity;BME280_pressure;Samples;Min_cycle;Max_cycle;Signal;HPM_P1;HPM_P2
2023/01/05 00:04:59;;;;;;;2.50;2.30;;;;;;;10.68;59.81;100336.72;10347806;28;20762;-61
2023/01/05 00:10:01;;;;;;;2.20;2.10;;;;;;;9.58;61.47;100325.53;10348591;28;20237;-61
2023/01/05 00:25:44;;;;;;;2.07;1.97;;;;;;;10.50;58.63;100333.41;10347862;28;20233;-61
2023/01/05 00:30:46;;;;;;;1.90;1.80;;;;;;;8.78;62.95;100341.94;10350649;28;20749;-61
2023/01/05 00:35:48;;;;;;;2.30;2.20;;;;;;;10.36;60.50;100292.16;10356045;28;20233;-61
2023/01/05 00:40:49;;;;;;;2.23;2.10;;;;;;;11.01;59.54;100333.13;10353098;28;20878;-60
2023/01/05 00:45:51;;;;;;;1.80;1.70;;;;;;;10.30;60.09;100295.50;10355075;28;20273;-60
2023/01/05 00:50:53;;;;;;;2.33;2.20;;;;;;;10.32;60.16;100306.84;10341344;28;20244;-61
2023/01/05 00:55:56;;;;;;;2.17;2.07;;;;;;;8.42;66.40;100326.03;10353962;28;20906;-62
2023/01/05 01:00:58;;;;;;;1.97;1.87;;;;;;;10.81;59.88;100317.44;10350024;28;20241;-61
2023/01/05 01:06:00;;;;;;;2.20;2.10;;;;;;;8.73;63.25;100304.22;10349849;28;20898;-61
2023/01/05 01:11:07;;;;;;;2.20;2.10;;;;;;;11.01;59.27;100312.50;10347952;28;20234;-60
2023/01/05 01:16:10;;;;;;;2.83;2.50;;;;;;;9.11;62.88;100305.59;10355265;28;20238;-64
2023/01/05 01:21:12;;;;;;;1.67;1.57;;;;;;;11.28;58.38;100325.63;10348773;28;20264;-60
2023/01/05 01:26:14;;;;;;;2.40;1.80;;;;;;;10.38;60.99;100265.19;10346803;28;20902;-61
2023/01/05 01:31:16;;;;;;;2.27;1.80;;;;;;;10.91;57.86;100284.28;10351316;28;20237;-60
2023/01/05 01:36:18;;;;;;;1.43;1.33;;;;;;;10.43;59.50;100258.34;10343713;28;20234;-61
2023/01/05 01:41:19;;;;;;;2.10;2.00;;;;;;;11.54;57.67;100310.06;10345869;28;20230;-64
2023/01/05 01:46:23;;;;;;;1.43;1.40;;;;;;;10.76;58.60;100257.41;10354750;28;20240;-62
2023/01/05 01:51:43;;;;;;;2.00;1.90;;;;;;;11.67;57.27;100306.81;10353687;28;20264;-63
2023/01/05 01:56:51;;;;;;;2.10;1.70;;;;;;;10.98;57.02;100279.91;10350484;28;20240;-61
2023/01/05 02:01:56;;;;;;;1.30;1.30;;;;;;;10.46;59.70;100244.63;10352364;28;20269;-61
2023/01/05 02:07:00;;;;;;;1.70;1.60;;;;;;;11.41;58.86;100270.44;10350746;28;20710;-61
2023/01/05 02:12:35;;;;;;;1.73;1.63;;;;;;;11.23;58.52;100268.03;10349240;28;20247;-60
2023/01/05 02:18:06;;;;;;;2.10;2.00;;;;;;;11.07;59.31;100255.59;10354194;28;20255;-63
2023/01/05 02:23:29;;;;;;;1.57;1.47;;;;;;;11.13;58.29;100258.56;10341075;28;20331;-61
2023/01/05 02:28:33;;;;;;;1.60;1.60;;;;;;;10.89;60.16;100250.47;10347552;28;20238;-63
2023/01/05 02:34:01;;;;;;;1.70;1.60;;;;;;;10.84;60.29;100244.00;10351804;28;20252;-61
2023/01/05 02:39:16;;;;;;;1.90;1.83;;;;;;;9.43;61.67;100218.50;10352701;28;21364;-63
2023/01/05 02:44:19;;;;;;;2.40;1.70;;;;;;;11.08;58.74;100248.38;10347756;28;20327;-60
2023/01/05 02:49:21;;;;;;;1.97;1.80;;;;;;;12.18;57.49;100290.97;10349996;28;20789;-60
2023/01/05 02:54:29;;;;;;;1.70;1.70;;;;;;;12.17;56.72;100291.97;10348502;28;20632;-60
2023/01/05 02:59:57;;;;;;;1.73;1.70;;;;;;;11.18;59.79;100259.69;10351492;28;20253;-60
2023/01/05 03:05:14;;;;;;;2.00;1.80;;;;;;;10.70;60.58;100249.03;10351041;28;20233;-61
2023/01/05 03:15:40;;;;;;;2.30;2.10;;;;;;;11.68;58.96;100252.19;10350686;28;20618;-63
2023/01/05 03:20:50;;;;;;;2.37;1.97;;;;;;;12.26;57.40;100310.66;10346439;28;20742;-60
2023/01/05 03:36:49;;;;;;;1.83;1.73;;;;;;;11.24;59.25;100237.56;10349252;28;20244;-61
2023/01/05 03:41:51;;;;;;;1.90;1.80;;;;;;;11.72;58.86;100241.94;10347960;28;20257;-60
2023/01/05 03:46:53;;;;;;;2.17;2.07;;;;;;;11.56;58.57;100246.38;10351855;28;20621;-64
2023/01/05 03:51:54;;;;;;;1.70;1.60;;;;;;;11.90;57.95;100269.25;10357845;28;20240;-60
2023/01/05 03:56:56;;;;;;;1.63;1.53;;;;;;;12.25;57.26;100279.47;10355021;28;20770;-61
2023/01/05 04:01:58;;;;;;;2.10;2.00;;;;;;;12.16;57.74;100266.16;10364217;22;20238;-37
2023/01/05 04:07:00;;;;;;;1.90;1.80;;;;;;;11.51;58.82;100226.50;10317512;28;20257;-36
2023/01/05 04:12:01;;;;;;;1.73;1.63;;;;;;;12.06;57.83;100241.44;10315511;28;20248;-37
2023/01/05 04:17:03;;;;;;;2.77;1.57;;;;;;;11.15;60.06;100202.97;10315366;28;20235;-37
2023/01/05 04:22:04;;;;;;;2.20;2.10;;;;;;;12.21;57.66;100270.13;10313667;28;20242;-37
2023/01/05 04:27:06;;;;;;;1.70;1.60;;;;;;;11.60;58.79;100226.22;10314929;28;20252;-37
2023/01/05 04:32:08;;;;;;;1.90;1.80;;;;;;;12.47;57.36;100273.25;10311108;28;20234;-36
2023/01/05 04:37:09;;;;;;;2.03;1.93;;;;;;;11.17;58.95;100217.00;10314199;28;20238;-37
2023/01/05 04:42:11;;;;;;;1.90;1.80;;;;;;;11.98;58.84;100249.59;10308524;28;20237;-37
2023/01/05 04:47:13;;;;;;;1.97;1.87;;;;;;;11.97;58.20;100269.34;10312112;28;20237;-36
2023/01/05 04:52:15;;;;;;;2.17;1.80;;;;;;;11.86;58.21;100267.09;10313747;28;20241;-37
2023/01/05 04:57:16;;;;;;;3.30;2.33;;;;;;;12.54;57.68;100284.91;10316135;28;20729;-37
2023/01/05 05:05:19;;;;;;;2.50;2.03;;;;;;;10.73;61.78;100230.97;10587361;27;20694;-62
2023/01/05 05:10:21;;;;;;;3.13;1.90;;;;;;;11.92;58.87;100269.06;10516790;28;20234;-63
2023/01/05 05:15:23;;;;;;;1.77;1.67;;;;;;;11.44;59.25;100262.06;10515634;28;20233;-63
2023/01/05 05:20:24;;;;;;;3.33;1.97;;;;;;;11.23;59.60;100273.41;10522908;28;20237;-62
2023/01/05 05:25:26;;;;;;;5.10;2.40;;;;;;;11.74;58.95;100288.16;10509996;28;20307;-63
2023/01/05 05:30:27;;;;;;;6.43;3.07;;;;;;;12.12;57.64;100309.63;10519235;28;20239;-62
2023/01/05 05:35:29;;;;;;;2.30;2.10;;;;;;;12.13;57.69;100320.19;10511455;28;20256;-62
2023/01/05 05:40:31;;;;;;;2.37;2.17;;;;;;;12.13;57.68;100325.53;10521910;28;20234;-62
2023/01/05 05:45:33;;;;;;;2.50;2.30;;;;;;;12.87;56.28;100369.63;10512940;28;20239;-62
2023/01/05 05:50:34;;;;;;;2.43;2.20;;;;;;;12.53;56.99;100347.66;10516980;28;20237;-61
2023/01/05 05:55:36;;;;;;;2.37;2.27;;;;;;;13.38;55.61;100387.66;10506367;28;20246;-63
2023/01/05 06:00:37;;;;;;;1.60;1.50;;;;;;;11.85;58.11;100309.19;10493190;28;20257;-63
2023/01/05 06:05:39;;;;;;;1.60;1.50;;;;;;;11.28;60.55;100342.53;10488188;28;20235;-63
2023/01/05 06:10:41;;;;;;;2.00;1.90;;;;;;;12.84;56.54;100367.28;10481486;28;20728;-63
2023/01/05 06:15:42;;;;;;;1.70;1.60;;;;;;;12.78;56.97;100365.38;10449664;28;20315;-63
2023/01/05 06:20:45;;;;;;;2.57;2.07;;;;;;;13.99;54.65;100406.97;10456127;28;20238;-63
2023/01/05 06:25:46;;;;;;;2.33;2.13;;;;;;;12.31;56.78;100337.78;10485051;28;20238;-62
2023/01/05 06:30:48;;;;;;;1.83;1.73;;;;;;;12.83;56.00;100339.59;10483873;28;20226;-62
2023/01/05 06:35:49;;;;;;;3.67;2.57;;;;;;;13.03;55.32;100368.59;10483606;28;20238;-63
2023/01/05 06:40:51;;;;;;;4.60;2.40;;;;;;;13.75;53.70;100397.41;10493479;28;20231;-62
2023/01/05 06:45:53;;;;;;;5.37;2.30;;;;;;;12.88;55.35;100347.94;10475682;28;20705;-63
2023/01/05 06:50:54;;;;;;;3.00;2.00;;;;;;;13.48;53.96;100388.22;10470307;28;20787;-63
2023/01/05 06:55:56;;;;;;;4.67;2.10;;;;;;;13.21;55.65;100376.25;10475878;28;20285;-64
2023/01/05 07:00:58;;;;;;;6.77;2.33;;;;;;;12.52;56.33;100351.38;10475888;28;20223;-64
2023/01/05 07:05:59;;;;;;;3.87;2.70;;;;;;;12.71;55.36;100349.16;10479311;28;20235;-64
2023/01/05 07:11:01;;;;;;;5.97;2.73;;;;;;;12.60;55.60;100354.97;10477286;28;20276;-64
2023/01/05 07:16:03;;;;;;;6.07;2.60;;;;;;;13.38;53.21;100390.34;10479069;28;20285;-63
2023/01/05 07:21:05;;;;;;;4.23;2.50;;;;;;;12.87;53.96;100359.72;10474637;28;20234;-64
2023/01/05 07:26:08;;;;;;;4.53;2.43;;;;;;;12.49;55.09;100343.69;10476087;28;20231;-64
2023/01/05 07:31:09;;;;;;;5.77;3.13;;;;;;;13.48;53.82;100398.97;10479872;28;20219;-63
2023/01/05 07:36:12;;;;;;;4.73;2.50;;;;;;;12.94;54.79;100370.56;10482160;28;20239;-63
2023/01/05 07:41:14;;;;;;;5.90;2.50;;;;;;;12.31;55.56;100365.44;10472285;28;20322;-63
2023/01/05 07:46:16;;;;;;;5.40;3.00;;;;;;;12.70;54.49;100364.44;10488762;28;20660;-63
2023/01/05 07:51:18;;;;;;;5.13;3.07;;;;;;;13.42;53.47;100405.09;10490391;28;20231;-63
2023/01/05 07:56:19;;;;;;;4.17;2.63;;;;;;;13.05;54.12;100382.69;10486087;28;20255;-63
2023/01/05 08:01:21;;;;;;;8.13;3.10;;;;;;;11.59;55.75;100357.75;10486624;28;20241;-63
2023/01/05 08:06:24;;;;;;;9.63;3.43;;;;;;;13.37;53.10;100402.13;10477469;28;20235;-64
2023/01/05 08:11:25;;;;;;;8.93;2.73;;;;;;;12.68;54.00;100384.44;10465067;28;20231;-63
2023/01/05 08:16:32;;;;;;;10.03;3.50;;;;;;;12.74;53.81;100408.69;10468381;28;20269;-64
2023/01/05 08:21:34;;;;;;;11.00;2.87;;;;;;;12.37;53.58;100388.88;10481561;28;20339;-63
2023/01/05 08:26:35;;;;;;;9.33;3.30;;;;;;;12.40;53.30;100395.75;10483131;28;20231;-63
2023/01/05 08:31:38;;;;;;;12.50;3.47;;;;;;;12.46;53.56;100427.22;10483504;28;20255;-63
2023/01/05 08:36:40;;;;;;;10.13;3.67;;;;;;;12.13;53.70;100416.75;10478319;28;20288;-64
2023/01/05 08:41:41;;;;;;;12.40;3.73;;;;;;;12.43;53.10;100430.25;10457182;28;20235;-64
2023/01/05 08:46:43;;;;;;;12.53;3.90;;;;;;;12.87;52.62;100442.13;10462028;28;20228;-64
2023/01/05 08:51:45;;;;;;;11.57;4.67;;;;;;;13.14;51.86;100467.53;10441894;28;20235;-64
2023/01/05 08:56:49;;;;;;;14.07;4.20;;;;;;;13.25;51.86;100477.81;10439849;28;20268;-63
2023/01/05 09:01:51;;;;;;;12.53;4.00;;;;;;;12.38;52.06;100456.81;10435616;28;20318;-63
2023/01/05 09:06:53;;;;;;;13.10;3.03;;;;;;;13.09;51.36;100469.94;10438313;28;20323;-63
2023/01/05 09:11:54;;;;;;;11.07;3.43;;;;;;;12.57;51.99;100476.16;10438644;28;20251;-63
2023/01/05 09:16:56;;;;;;;10.20;3.50;;;;;;;12.69;50.93;100477.41;10437802;28;21078;-63
2023/01/05 09:22:07;;;;;;;10.43;4.00;;;;;;;12.71;51.22;100462.75;10431359;28;20231;-64
2023/01/05 09:27:09;;;;;;;9.63;3.97;;;;;;;12.36;51.95;100474.94;10448340;28;20231;-63
2023/01/05 09:32:11;;;;;;;13.70;3.77;;;;;;;12.40;51.87;100489.69;10467633;28;20220;-63
2023/01/05 09:37:12;;;;;;;13.77;4.30;;;;;;;12.21;51.94;100487.47;10482887;28;20239;-64
2023/01/05 09:42:18;;;;;;;11.70;3.70;;;;;;;12.47;51.41;100487.13;10480096;28;20700;-63
2023/01/05 09:47:37;;;;;;;12.20;4.70;;;;;;;13.06;50.17;100473.84;10479058;28;20226;-63
2023/01/05 09:52:39;;;;;;;11.80;4.60;;;;;;;13.29;49.73;100481.00;10485581;28;20234;-62
2023/01/05 09:57:44;;;;;;;8.60;3.80;;;;;;;12.90;50.05;100479.38;10491727;28;20807;-63
2023/01/05 10:02:47;;;;;;;13.93;4.60;;;;;;;13.19;50.20;100494.69;10500495;22;20231;-38
2023/01/05 10:07:59;;;;;;;13.50;5.10;;;;;;;13.90;49.27;100502.25;10487925;28;20602;-37
2023/01/05 10:13:02;;;;;;;13.97;5.73;;;;;;;12.48;50.94;100470.84;10479697;28;20736;-38
2023/01/05 10:18:14;;;;;;;14.03;5.87;;;;;;;13.07;50.35;100478.19;10495668;22;20782;-36
2023/01/05 10:23:16;;;;;;;11.53;3.83;;;;;;;13.25;49.89;100453.63;10451976;28;20231;-35
2023/01/05 10:28:37;;;;;;;13.20;4.03;;;;;;;14.02;48.70;100481.09;10433179;28;20240;-35
2023/01/05 10:34:05;;;;;;;12.83;3.87;;;;;;;13.66;49.08;100458.53;10406787;28;20606;-35
2023/01/05 10:39:31;;;;;;;15.07;4.43;;;;;;;13.10;49.42;100447.44;10412228;28;20232;-34
2023/01/05 10:44:33;;;;;;;11.03;3.60;;;;;;;14.09;48.13;100463.19;10396955;28;20271;-35
2023/01/05 10:49:35;;;;;;;9.20;3.73;;;;;;;13.63;49.00;100458.94;10407286;28;20583;-35
2023/01/05 10:54:53;;;;;;;14.13;4.63;;;;;;;13.65;48.51;100454.19;10429571;28;20689;-37
2023/01/05 11:00:02;;;;;;;10.20;4.20;;;;;;;13.71;48.69;100431.06;10413228;28;20242;-35
2023/01/05 11:06:22;;;;;;;10.70;4.20;;;;;;;9.50;56.55;100537.44;10461928;28;20792;-64
2023/01/05 11:11:25;;;;;;;13.37;4.10;;;;;;;10.40;56.07;100495.97;10451889;28;20227;-66
2023/01/05 11:16:31;;;;;;;11.57;3.50;;;;;;;10.91;54.48;100431.56;10487392;28;20263;-65
2023/01/05 11:21:38;;;;;;;16.67;4.00;;;;;;;10.61;54.97;100444.63;10464788;28;20246;-66
2023/01/05 11:26:48;;;;;;;10.80;3.20;;;;;;;10.97;54.52;100442.44;10474556;28;20231;-66
2023/01/05 11:32:09;;;;;;;9.33;3.73;;;;;;;10.74;55.20;100430.72;10475227;28;20223;-66
2023/01/05 11:37:10;;;;;;;15.93;4.27;;;;;;;10.69;55.06;100440.09;10469544;28;21568;-66
2023/01/05 11:42:23;;;;;;;11.37;4.03;;;;;;;11.30;54.56;100433.44;10471950;28;20223;-66
2023/01/05 11:47:27;;;;;;;14.07;4.67;;;;;;;10.67;55.61;100484.94;10473352;28;20322;-66
2023/01/05 11:52:37;;;;;;;12.50;4.23;;;;;;;12.03;53.23;100432.25;10475296;28;20238;-66
2023/01/05 11:57:39;;;;;;;14.30;4.33;;;;;;;11.68;53.59;100398.81;10472799;28;20236;-66
2023/01/05 12:03:19;;;;;;;12.53;3.87;;;;;;;11.71;53.55;100436.81;10481921;28;20222;-66
2023/01/05 12:08:33;;;;;;;13.10;4.30;;;;;;;11.54;52.67;100397.66;10475014;28;20847;-66
2023/01/05 12:14:13;;;;;;;12.97;4.37;;;;;;;11.01;53.78;100451.78;10463733;28;20240;-66
2023/01/05 12:19:26;;;;;;;10.07;4.97;;;;;;;11.84;52.43;100400.53;10445058;28;20643;-65
2023/01/05 12:24:51;;;;;;;13.53;4.73;;;;;;;11.17;53.59;100440.19;10437388;28;20622;-66
2023/01/05 12:30:11;;;;;;;13.60;4.43;;;;;;;11.98;51.64;100391.72;10459410;28;20245;-66
2023/01/05 12:35:50;;;;;;;10.77;4.50;;;;;;;12.88;51.06;100428.53;10441502;28;20896;-63
2023/01/05 12:41:04;;;;;;;15.60;5.10;;;;;;;11.88;52.49;100460.81;10431539;28;20238;-65
2023/01/05 12:46:24;;;;;;;16.97;5.53;;;;;;;12.71;50.62;100421.66;10430645;28;20249;-66
2023/01/05 12:51:33;;;;;;;14.63;5.17;;;;;;;12.29;51.67;100455.22;10434273;28;20259;-66
2023/01/05 12:56:44;;;;;;;12.00;3.93;;;;;;;11.23;53.59;100505.63;10450042;28;20235;-66
2023/01/05 13:02:02;;;;;;;12.57;4.33;;;;;;;11.98;52.65;100448.88;10438021;28;20224;-66
2023/01/05 13:07:10;;;;;;;12.30;4.67;;;;;;;12.32;52.40;100444.13;10444726;28;20260;-66
2023/01/05 13:12:12;;;;;;;19.37;5.27;;;;;;;13.08;50.45;100428.81;10435743;28;20240;-66
2023/01/05 13:17:32;;;;;;;13.90;4.70;;;;;;;13.23;49.96;100442.25;10433651;28;20229;-66
2023/01/05 13:22:39;;;;;;;14.30;4.37;;;;;;;12.65;51.17;100442.00;10434616;28;20234;-66
2023/01/05 13:27:42;;;;;;;14.17;3.87;;;;;;;13.32;50.04;100442.19;10425955;28;20745;-64
2023/01/05 13:33:07;;;;;;;11.97;5.27;;;;;;;14.12;48.39;100456.56;10426439;28;20227;-66
2023/01/05 13:38:14;;;;;;;12.53;3.90;;;;;;;12.03;51.18;100459.09;10423275;28;20229;-65
2023/01/05 13:43:27;;;;;;;16.57;5.40;;;;;;;12.26;51.03;100434.91;10424515;28;20714;-67
2023/01/05 13:49:11;;;;;;;15.50;5.07;;;;;;;12.41;50.88;100439.53;10450228;28;20232;-65
2023/01/05 13:54:19;;;;;;;20.33;5.37;;;;;;;12.58;50.06;100440.25;10448755;28;20616;-65
2023/01/05 13:59:26;;;;;;;17.97;4.37;;;;;;;12.70;49.68;100430.72;10446178;28;20230;-65
2023/01/05 14:04:44;;;;;;;11.50;4.60;;;;;;;11.79;51.29;100468.09;10448359;28;20234;-65
2023/01/05 14:09:56;;;;;;;15.20;4.70;;;;;;;12.72;50.04;100447.47;10439768;28;20235;-66
2023/01/05 14:15:27;;;;;;;13.00;4.83;;;;;;;13.54;48.96;100462.72;10446233;28;20250;-65
2023/01/05 14:20:35;;;;;;;13.17;4.50;;;;;;;12.22;50.69;100489.16;10444685;28;20238;-65
2023/01/05 14:25:37;;;;;;;12.80;4.70;;;;;;;13.08;49.22;100449.47;10425690;28;20769;-65
2023/01/05 14:30:38;;;;;;;12.73;4.47;;;;;;;12.61;50.39;100499.78;10439767;28;20245;-65
2023/01/05 14:35:42;;;;;;;16.00;4.63;;;;;;;11.99;50.54;100496.13;10441734;28;20238;-65
2023/01/05 14:40:51;;;;;;;15.63;6.20;;;;;;;11.86;51.17;100525.41;10433900;28;20719;-65
2023/01/05 14:46:23;;;;;;;13.67;4.77;;;;;;;11.84;50.21;100491.72;10441540;28;20231;-65
2023/01/05 14:51:28;;;;;;;12.90;4.93;;;;;;;11.73;50.29;100528.63;10421923;28;20753;-65
2023/01/05 14:56:34;;;;;;;16.97;6.77;;;;;;;11.85;50.68;100523.72;10436240;28;20243;-65
2023/01/05 15:01:50;;;;;;;15.57;5.60;;;;;;;12.14;50.09;100528.41;10440564;28;20275;-63
2023/01/05 15:06:56;;;;;;;18.17;8.37;;;;;;;13.24;47.80;100473.47;10415428;28;20227;-63
2023/01/05 15:12:13;;;;;;;14.37;4.37;;;;;;;12.93;48.65;100484.38;10419286;28;20730;-64
2023/01/05 15:17:21;;;;;;;14.60;5.30;;;;;;;12.53;48.70;100487.25;10420555;28;20255;-63
2023/01/05 15:22:29;;;;;;;21.60;6.13;;;;;;;12.05;49.98;100510.69;10419320;28;20248;-63
2023/01/05 15:28:10;;;;;;;19.07;5.10;;;;;;;13.49;48.09;100489.34;10416628;28;20687;-64
2023/01/05 15:33:24;;;;;;;14.87;5.70;;;;;;;13.89;47.21;100484.47;10412045;28;20722;-64
2023/01/05 15:38:28;;;;;;;15.57;6.03;;;;;;;13.17;47.76;100472.53;10423911;28;20235;-65
2023/01/05 15:43:31;;;;;;;17.03;5.30;;;;;;;12.48;48.61;100499.53;10432951;28;20224;-65
2023/01/05 15:48:41;;;;;;;12.00;4.13;;;;;;;12.38;49.03;100489.00;10432756;28;20240;-65
2023/01/05 15:53:53;;;;;;;11.73;4.20;;;;;;;13.62;47.65;100475.25;10439399;28;20239;-65
2023/01/05 15:58:55;;;;;;;9.03;3.83;;;;;;;12.87;48.54;100503.91;10443511;28;20243;-69
2023/01/05 16:04:08;;;;;;;10.43;4.77;;;;;;;14.12;46.55;100467.34;10448896;22;20601;-36
2023/01/05 16:09:19;;;;;;;10.77;4.20;;;;;;;12.82;47.91;100468.72;10436650;28;20291;-34
2023/01/05 16:14:27;;;;;;;13.23;4.47;;;;;;;13.90;47.10;100469.16;10441812;28;20251;-34
2023/01/05 16:19:45;;;;;;;16.03;4.40;;;;;;;13.00;47.33;100466.50;10442683;28;20243;-37
2023/01/05 16:25:02;;;;;;;9.30;4.37;;;;;;;12.17;48.68;100474.41;10435672;28;20513;-35
2023/01/05 16:30:27;;;;;;;9.77;3.90;;;;;;;13.06;48.97;100424.66;10435311;28;20239;-34
2023/01/05 16:35:39;;;;;;;13.27;4.53;;;;;;;11.63;50.63;100493.16;10437492;28;20286;-37
2023/01/05 16:40:48;;;;;;;10.77;4.50;;;;;;;11.75;50.74;100488.22;10430488;28;20228;-35
2023/01/05 16:45:56;;;;;;;11.87;4.70;;;;;;;11.95;49.92;100462.66;10429498;28;20612;-35
2023/01/05 16:51:04;;;;;;;12.13;3.70;;;;;;;13.11;48.52;100417.69;10433375;28;20309;-34
2023/01/05 16:56:32;;;;;;;14.07;4.67;;;;;;;12.89;49.13;100449.00;10422047;28;20232;-35
2023/01/05 17:01:39;;;;;;;11.07;3.70;;;;;;;13.05;49.46;100433.72;10408549;28;20231;-34
2023/01/05 17:06:45;;;;;;;12.53;3.70;;;;;;;11.93;50.93;100472.72;10415407;28;20240;-34
2023/01/05 17:11:47;;;;;;;12.90;5.07;;;;;;;12.21;50.85;100482.09;10422704;28;20601;-35
2023/01/05 17:16:48;;;;;;;10.33;4.70;;;;;;;13.21;49.47;100408.50;10420793;28;20225;-34
2023/01/05 17:21:56;;;;;;;19.50;6.27;;;;;;;12.45;50.89;100422.03;10422257;28;20242;-35
2023/01/05 17:26:58;;;;;;;16.40;5.93;;;;;;;13.73;49.75;100399.44;10424199;28;20239;-34
2023/01/05 17:32:00;;;;;;;16.17;7.63;;;;;;;13.59;49.99;100401.16;10418426;28;20238;-34
2023/01/05 17:37:02;;;;;;;17.13;7.20;;;;;;;14.39;48.30;100361.59;10417475;28;20318;-34
2023/01/05 17:47:24;;;;;;;17.30;6.43;;;;;;;13.28;50.39;100372.66;10417267;28;20229;-34
2023/01/05 17:52:26;;;;;;;15.00;6.47;;;;;;;13.48;50.44;100350.59;10429549;28;20231;-33
2023/01/05 17:57:28;;;;;;;11.87;6.00;;;;;;;12.83;51.03;100385.25;10440219;28;20250;-34
2023/01/05 18:02:30;;;;;;;17.37;9.00;;;;;;;13.06;51.33;100395.09;10434305;28;20605;-34
2023/01/05 18:07:32;;;;;;;12.50;6.00;;;;;;;13.43;50.77;100371.78;10439969;28;20236;-34
2023/01/05 18:12:34;;;;;;;21.57;8.90;;;;;;;13.65;50.54;100376.19;10432153;28;20235;-34
2023/01/05 18:17:36;;;;;;;18.83;8.03;;;;;;;13.29;51.16;100379.72;10430625;28;20243;-36
2023/01/05 18:22:38;;;;;;;16.60;6.73;;;;;;;14.27;49.81;100336.22;10435660;28;20236;-38
2023/01/05 18:27:40;;;;;;;12.73;6.80;;;;;;;13.34;51.66;100389.88;10430061;28;20685;-36
2023/01/05 18:32:43;;;;;;;13.87;6.67;;;;;;;13.61;51.56;100369.53;10434523;28;20232;-34
2023/01/05 18:37:45;;;;;;;14.47;5.27;;;;;;;13.78;51.17;100318.19;10431798;28;20239;-35
2023/01/05 18:42:46;;;;;;;8.77;5.43;;;;;;;13.38;52.11;100383.13;10436535;28;20239;-34
2023/01/05 18:47:48;;;;;;;12.10;4.70;;;;;;;12.03;55.66;100351.78;10429410;28;20235;-35
2023/01/05 18:52:50;;;;;;;11.73;4.80;;;;;;;11.89;55.56;100357.94;10428796;28;20358;-33
2023/01/05 18:57:52;;;;;;;12.37;5.27;;;;;;;14.06;51.93;100291.34;10429683;28;20728;-35
2023/01/05 19:02:53;;;;;;;15.67;6.17;;;;;;;14.09;50.48;100287.41;10435331;28;20674;-35
2023/01/05 19:07:55;;;;;;;15.47;6.17;;;;;;;14.26;50.38;100280.72;10433718;28;20238;-33
2023/01/05 19:12:57;;;;;;;11.57;6.43;;;;;;;14.35;50.22;100308.31;10432754;28;20236;-33
2023/01/05 19:17:59;;;;;;;11.20;5.67;;;;;;;14.60;49.66;100295.22;10427071;28;21453;-35
2023/01/05 19:23:01;;;;;;;13.30;5.50;;;;;;;12.26;54.00;100342.88;10430422;28;20234;-33
2023/01/05 19:28:03;;;;;;;11.67;6.47;;;;;;;12.87;52.98;100308.69;10442081;28;20865;-34
2023/01/05 19:33:05;;;;;;;14.57;5.30;;;;;;;13.90;51.37;100288.91;10434412;28;20361;-35
2023/01/05 19:38:07;;;;;;;11.53;5.07;;;;;;;11.98;54.84;100349.66;10440233;28;20246;-37
2023/01/05 19:43:09;;;;;;;12.27;5.43;;;;;;;10.95;58.17;100350.72;10412987;28;20725;-34
2023/01/05 19:48:10;;;;;;;8.90;5.30;;;;;;;10.89;57.72;100338.84;10447633;28;20246;-34
2023/01/05 19:53:12;;;;;;;15.80;5.43;;;;;;;11.85;56.17;100324.44;10448527;28;20264;-34
2023/01/05 19:58:14;;;;;;;13.13;6.90;;;;;;;11.49;55.73;100328.53;10448134;28;20603;-34
2023/01/05 20:03:16;;;;;;;15.07;5.80;;;;;;;12.68;52.80;100269.78;10439768;28;21121;-35
2023/01/05 20:08:17;;;;;;;14.80;6.47;;;;;;;12.18;53.25;100316.94;10441094;28;20238;-34
2023/01/05 20:13:19;;;;;;;14.73;7.17;;;;;;;13.60;50.58;100259.50;10440602;28;20224;-35
2023/01/05 20:18:21;;;;;;;12.93;5.40;;;;;;;13.59;51.82;100290.09;10447739;28;20228;-35
2023/01/05 20:23:23;;;;;;;9.40;5.37;;;;;;;13.94;51.54;100277.56;10446236;28;20758;-33
2023/01/05 20:28:24;;;;;;;7.77;6.00;;;;;;;13.89;50.96;100263.03;10441730;28;20259;-34
2023/01/05 20:33:26;;;;;;;14.53;6.30;;;;;;;14.08;50.38;100265.06;10434503;28;20233;-33
2023/01/05 20:38:28;;;;;;;11.10;6.50;;;;;;;13.55;52.02;100315.66;10440288;28;20236;-33
2023/01/05 20:43:30;;;;;;;10.77;5.60;;;;;;;14.17;50.26;100279.19;10425497;28;20255;-34
2023/01/05 20:48:31;;;;;;;9.10;5.93;;;;;;;13.35;52.85;100324.38;10443508;28;20232;-35
2023/01/05 20:53:34;;;;;;;10.00;5.20;;;;;;;13.28;52.05;100265.16;10443684;28;20638;-36
2023/01/05 20:58:35;;;;;;;10.47;5.23;;;;;;;12.52;54.92;100374.69;10440221;28;20235;-35
2023/01/05 21:03:38;;;;;;;7.57;4.80;;;;;;;14.18;51.30;100248.59;10443961;28;20227;-35
2023/01/05 21:08:42;;;;;;;6.07;4.70;;;;;;;12.85;54.34;100326.81;10446014;28;20665;-37
2023/01/05 21:13:46;;;;;;;9.57;5.07;;;;;;;12.53;55.08;100318.13;10443423;28;20230;-35
2023/01/05 21:18:49;;;;;;;6.63;4.97;;;;;;;13.80;52.71;100252.41;10439760;28;20256;-33
2023/01/05 21:23:52;;;;;;;7.93;4.60;;;;;;;13.63;52.07;100241.09;10445605;28;20232;-34
2023/01/05 21:28:54;;;;;;;8.17;4.80;;;;;;;13.57;53.45;100254.50;10437743;28;20761;-33
2023/01/05 21:33:56;;;;;;;9.47;4.00;;;;;;;12.02;55.85;100322.47;10439320;28;20243;-35
2023/01/05 21:39:06;;;;;;;6.23;4.37;;;;;;;12.62;54.49;100281.31;10431324;28;20238;-33
2023/01/05 21:44:09;;;;;;;6.93;4.47;;;;;;;13.24;54.78;100250.41;10436402;28;20609;-36
2023/01/05 21:49:13;;;;;;;7.33;4.23;;;;;;;11.85;57.34;100301.13;10438904;28;20782;-36
2023/01/05 21:59:35;;;;;;;4.53;3.53;;;;;;;12.17;56.77;100245.53;10438311;28;20323;-37
2023/01/05 22:04:37;;;;;;;4.83;3.50;;;;;;;12.71;54.74;100188.88;10437793;28;20246;-34
2023/01/05 22:09:38;;;;;;;3.70;3.10;;;;;;;12.53;56.09;100231.41;10439715;28;20239;-36
2023/01/05 22:14:40;;;;;;;5.73;3.90;;;;;;;12.39;56.22;100294.78;10441471;28;20411;-33
2023/01/05 22:19:42;;;;;;;8.63;5.33;;;;;;;12.72;54.63;100254.13;10442025;28;20319;-40
2023/01/05 22:24:44;;;;;;;4.57;3.70;;;;;;;12.45;55.36;100256.47;10440066;28;20334;-43
2023/01/05 22:29:45;;;;;;;7.20;3.43;;;;;;;12.01;57.37;100278.69;10440100;28;20270;-41
2023/01/05 22:34:47;;;;;;;4.57;3.60;;;;;;;11.71;56.86;100245.63;10438502;28;20617;-42
2023/01/05 22:39:49;;;;;;;5.53;3.40;;;;;;;12.16;56.75;100266.16;10435596;28;20239;-43
2023/01/05 22:44:51;;;;;;;5.67;3.60;;;;;;;11.58;57.32;100273.00;10436606;28;20258;-43
2023/01/05 22:49:52;;;;;;;6.13;4.07;;;;;;;12.40;56.51;100248.13;10437142;28;20341;-43
2023/01/05 22:54:54;;;;;;;6.23;3.27;;;;;;;13.04;54.99;100199.16;10437654;28;20323;-42
2023/01/05 22:59:56;;;;;;;4.00;3.60;;;;;;;11.90;55.79;100289.88;10437118;28;20246;-44
2023/01/05 23:04:57;;;;;;;5.57;3.30;;;;;;;11.38;57.59;100302.94;10434464;28;20238;-42
2023/01/05 23:09:59;;;;;;;5.60;3.40;;;;;;;11.57;57.64;100293.59;10433270;28;20611;-39
2023/01/05 23:15:01;;;;;;;5.27;3.33;;;;;;;11.77;56.06;100264.50;10439435;28;20547;-42
2023/01/05 23:20:04;;;;;;;4.97;3.47;;;;;;;12.32;56.29;100251.72;10436375;28;20242;-41
2023/01/05 23:25:06;;;;;;;6.10;3.97;;;;;;;11.71;56.42;100254.50;10435734;28;20253;-45
2023/01/05 23:30:08;;;;;;;4.20;3.53;;;;;;;11.86;56.11;100278.69;10437569;28;20242;-45
2023/01/05 23:35:10;;;;;;;5.73;4.03;;;;;;;13.47;53.64;100196.50;10441029;28;20236;-40
2023/01/05 23:40:11;;;;;;;6.23;4.17;;;;;;;13.56;52.26;100205.25;10441055;28;20240;-43
2023/01/05 23:45:19;;;;;;;5.80;4.03;;;;;;;12.28;54.06;100230.81;10440732;28;20921;-42
2023/01/05 23:50:21;;;;;;;4.43;3.90;;;;;;;13.34;53.67;100225.13;10439619;28;20347;-43
2023/01/05 23:55:23;;;;;;;4.47;3.73;;;;;;;14.24;51.72;100207.44;10432635;28;20238;-42
